createdAt,value
2023-02-19T00:00:50.491Z,4.17
2023-02-19T00:02:53.990Z,4.00
2023-02-19T00:04:57.127Z,4.70
2023-02-19T00:07:00.226Z,4.30
2023-02-19T00:09:04.962Z,3.70
2023-02-19T00:11:09.660Z,4.20
2023-02-19T00:13:13.086Z,4.50
2023-02-19T00:15:16.271Z,4.00
2023-02-19T00:17:20.521Z,5.47
2023-02-19T00:19:23.705Z,4.63
2023-02-19T00:21:27.532Z,4.30
2023-02-19T00:23:30.824Z,4.20
2023-02-19T00:25:37.736Z,4.30
2023-02-19T00:27:40.833Z,4.80
2023-02-19T00:29:43.893Z,4.50
2023-02-19T00:31:47.233Z,4.37
2023-02-19T00:33:51.855Z,4.50
2023-02-19T00:35:55.003Z,4.13
2023-02-19T00:37:58.194Z,4.10
2023-02-19T00:40:01.409Z,4.33
2023-02-19T00:42:05.934Z,4.13
2023-02-19T00:44:09.741Z,4.47
2023-02-19T00:46:12.940Z,4.10
2023-02-19T00:48:16.055Z,4.00
2023-02-19T00:50:19.123Z,4.10
2023-02-19T00:52:22.293Z,4.17
2023-02-19T00:54:25.574Z,4.10
2023-02-19T00:56:29.012Z,4.37
2023-02-19T00:58:33.727Z,3.97
2023-02-19T01:00:37.138Z,4.73
2023-02-19T01:02:40.252Z,4.10
2023-02-19T01:04:43.399Z,4.60
2023-02-19T01:06:48.725Z,4.50
2023-02-19T01:08:51.861Z,5.10
2023-02-19T01:10:55.174Z,4.50
2023-02-19T01:12:58.611Z,4.67
2023-02-19T01:15:03.042Z,4.10
2023-02-19T01:17:06.553Z,4.27
2023-02-19T01:19:09.703Z,4.73
2023-02-19T01:21:14.519Z,4.20
2023-02-19T01:23:17.594Z,4.50
2023-02-19T01:25:21.052Z,5.00
2023-02-19T01:27:24.296Z,4.47
2023-02-19T01:29:27.438Z,4.60
2023-02-19T01:31:33.401Z,4.80
2023-02-19T01:33:38.118Z,4.93
2023-02-19T01:35:41.319Z,5.10
2023-02-19T01:37:44.423Z,5.20
2023-02-19T01:39:48.576Z,4.77
2023-02-19T01:41:52.031Z,5.17
2023-02-19T01:44:01.903Z,5.10
2023-02-19T01:46:07.794Z,5.63
2023-02-19T01:48:14.320Z,5.73
2023-02-19T01:50:17.763Z,6.30
2023-02-19T01:52:25.730Z,5.90
2023-02-19T01:54:32.536Z,5.53
2023-02-19T01:56:38.364Z,5.27
2023-02-19T01:58:41.752Z,4.93
2023-02-19T02:00:44.838Z,5.70
2023-02-19T02:02:51.542Z,5.93
2023-02-19T02:04:56.692Z,5.67
2023-02-19T02:07:02.135Z,5.27
2023-02-19T02:09:23.341Z,5.33
2023-02-19T02:11:26.747Z,5.53
2023-02-19T02:13:31.067Z,5.40
2023-02-19T02:15:40.791Z,5.40
2023-02-19T02:17:52.506Z,5.87
2023-02-19T02:20:08.189Z,5.30
2023-02-19T02:22:17.481Z,5.27
2023-02-19T02:24:45.024Z,5.30
2023-02-19T02:26:59.625Z,5.50
2023-02-19T02:29:41.856Z,5.67
2023-02-19T02:31:49.759Z,4.83
2023-02-19T02:33:57.857Z,4.97
2023-02-19T02:36:06.960Z,4.73
2023-02-19T02:38:12.937Z,4.50
2023-02-19T02:40:16.392Z,4.53
2023-02-19T02:42:28.921Z,4.60
2023-02-19T02:44:41.252Z,4.30
2023-02-19T02:46:46.805Z,4.67
2023-02-19T02:48:55.420Z,4.50
2023-02-19T02:51:01.903Z,4.47
2023-02-19T02:53:30.925Z,4.27
2023-02-19T02:55:42.701Z,4.27
2023-02-19T02:57:47.249Z,4.70
2023-02-19T02:59:50.925Z,4.00
2023-02-19T03:02:12.717Z,5.00
2023-02-19T03:04:20.835Z,4.20
2023-02-19T03:06:24.665Z,3.90
2023-02-19T03:08:31.535Z,4.47
2023-02-19T03:10:38.013Z,5.00
2023-02-19T03:12:59.350Z,4.57
2023-02-19T03:15:25.129Z,4.63
2023-02-19T03:17:52.326Z,4.30
2023-02-19T03:20:02.749Z,4.40
2023-02-19T03:22:15.747Z,4.40
2023-02-19T03:24:38.432Z,4.30
2023-02-19T03:26:43.084Z,4.33
2023-02-19T03:29:06.604Z,3.83
2023-02-19T03:31:13.299Z,3.47
2023-02-19T03:33:20.268Z,3.30
2023-02-19T03:35:26.810Z,2.90
2023-02-19T03:37:34.238Z,2.27
2023-02-19T03:39:44.451Z,2.33
2023-02-19T03:41:57.469Z,2.63
2023-02-19T03:44:08.720Z,2.30
2023-02-19T03:46:15.616Z,2.00
2023-02-19T03:48:26.464Z,1.77
2023-02-19T03:50:31.936Z,1.80
2023-02-19T03:52:44.384Z,1.60
2023-02-19T03:54:53.839Z,1.70
2023-02-19T03:57:02.877Z,1.80
2023-02-19T03:59:10.903Z,1.60
2023-02-19T04:01:17.759Z,1.53
2023-02-19T04:03:25.333Z,1.83
2023-02-19T04:05:31.211Z,1.60
2023-02-19T04:07:36.927Z,1.60
2023-02-19T04:09:43.084Z,1.40
2023-02-19T04:11:50.173Z,1.50
2023-02-19T04:13:57.813Z,1.60
2023-02-19T04:16:04.009Z,1.60
2023-02-19T04:18:09.034Z,1.70
2023-02-19T04:20:15.562Z,1.60
2023-02-19T04:22:18.904Z,1.33
2023-02-19T04:24:25.820Z,1.70
2023-02-19T04:26:29.754Z,1.50
2023-02-19T04:28:33.013Z,1.60
2023-02-19T04:30:36.189Z,1.83
2023-02-19T04:32:39.422Z,1.80
2023-02-19T04:34:42.529Z,1.80
2023-02-19T04:36:47.127Z,2.10
2023-02-19T04:38:50.177Z,1.90
2023-02-19T04:40:53.304Z,1.70
2023-02-19T04:42:56.530Z,1.87
2023-02-19T04:44:59.581Z,1.73
2023-02-19T04:47:02.629Z,2.00
2023-02-19T04:49:05.744Z,1.60
2023-02-19T04:51:09.419Z,1.77
2023-02-19T04:53:14.138Z,1.90
2023-02-19T04:55:17.336Z,1.70
2023-02-19T04:57:20.423Z,2.20
2023-02-19T04:59:23.650Z,1.83
2023-02-19T05:01:26.960Z,1.80
2023-02-19T05:03:30.506Z,1.80
2023-02-19T05:05:33.637Z,1.75
2023-02-19T05:07:36.776Z,1.80
2023-02-19T05:09:41.200Z,2.05
2023-02-19T05:11:44.316Z,1.60
2023-02-19T05:13:47.414Z,2.00
2023-02-19T05:15:57.475Z,1.50
2023-02-19T05:18:00.608Z,1.77
2023-02-19T05:20:03.992Z,2.00
2023-02-19T05:22:07.149Z,1.83
2023-02-19T05:24:10.342Z,2.15
2023-02-19T05:26:17.108Z,1.60
2023-02-19T05:28:20.691Z,1.60
2023-02-19T05:30:23.885Z,1.55
2023-02-19T05:32:27.112Z,1.67
2023-02-19T05:34:30.273Z,1.53
2023-02-19T05:36:33.819Z,1.30
2023-02-19T05:38:37.171Z,1.70
2023-02-19T05:40:40.481Z,1.70
2023-02-19T05:42:44.924Z,1.60
2023-02-19T05:44:50.974Z,1.55
2023-02-19T05:46:53.989Z,1.42
2023-02-19T05:48:58.171Z,1.63
2023-02-19T05:51:05.140Z,1.37
2023-02-19T05:53:08.308Z,1.48
2023-02-19T05:55:11.410Z,1.70
2023-02-19T05:57:14.546Z,1.20
2023-02-19T05:59:20.786Z,1.17
2023-02-19T06:01:25.582Z,1.40
2023-02-19T06:03:28.601Z,1.30
2023-02-19T06:05:31.722Z,1.40
2023-02-19T06:07:35.217Z,1.48
2023-02-19T06:09:38.553Z,1.20
2023-02-19T06:11:43.448Z,1.30
2023-02-19T06:13:47.444Z,1.40
2023-02-19T06:15:51.981Z,1.27
2023-02-19T06:17:55.048Z,1.42
2023-02-19T06:19:58.248Z,1.40
2023-02-19T06:22:01.358Z,1.48
2023-02-19T06:24:08.591Z,1.30
2023-02-19T06:26:13.528Z,1.50
2023-02-19T06:28:16.664Z,1.45
2023-02-19T06:30:20.002Z,1.47
2023-02-19T06:32:24.703Z,1.20
2023-02-19T06:34:28.360Z,1.27
2023-02-19T06:36:32.084Z,1.27
2023-02-19T06:38:35.311Z,1.23
2023-02-19T06:40:38.476Z,1.45
2023-02-19T06:42:41.630Z,1.50
2023-02-19T06:44:44.711Z,1.10
2023-02-19T06:46:47.846Z,1.17
2023-02-19T06:48:52.386Z,1.30
2023-02-19T06:50:55.782Z,1.70
2023-02-19T06:52:59.051Z,1.33
2023-02-19T06:55:02.240Z,1.70
2023-02-19T06:57:06.082Z,1.60
2023-02-19T06:59:11.644Z,1.70
2023-02-19T07:01:14.782Z,1.67
2023-02-19T07:03:17.925Z,1.65
2023-02-19T07:05:22.422Z,1.67
2023-02-19T07:07:25.494Z,1.63
2023-02-19T07:09:28.636Z,1.60
2023-02-19T07:11:34.261Z,1.90
2023-02-19T07:13:37.899Z,1.85
2023-02-19T07:15:41.130Z,1.77
2023-02-19T07:17:44.330Z,1.70
2023-02-19T07:19:47.436Z,2.00
2023-02-19T07:21:52.214Z,1.98
2023-02-19T07:23:55.698Z,1.97
2023-02-19T07:25:59.125Z,1.93
2023-02-19T07:28:02.213Z,2.33
2023-02-19T07:30:08.395Z,2.33
2023-02-19T07:32:11.561Z,2.05
2023-02-19T07:34:14.835Z,2.17
2023-02-19T07:36:20.154Z,2.63
2023-02-19T07:38:28.338Z,2.20
2023-02-19T07:40:31.455Z,2.20
2023-02-19T07:42:34.679Z,2.45
2023-02-19T07:44:37.881Z,2.20
2023-02-19T07:46:41.034Z,2.10
2023-02-19T07:48:44.603Z,2.40
2023-02-19T07:50:52.869Z,2.13
2023-02-19T07:52:56.427Z,1.85
2023-02-19T07:55:03.686Z,1.80
2023-02-19T07:57:06.887Z,2.20
2023-02-19T07:59:10.778Z,2.00
2023-02-19T08:01:16.581Z,2.43
2023-02-19T08:03:18.783Z,2.30
2023-02-19T08:05:21.782Z,2.30
2023-02-19T08:07:25.147Z,2.37
2023-02-19T08:09:28.259Z,2.58
2023-02-19T08:11:50.138Z,2.63
2023-02-19T08:13:54.312Z,2.33
2023-02-19T08:16:18.360Z,2.90
2023-02-19T08:18:27.048Z,2.40
2023-02-19T08:20:30.141Z,2.85
2023-02-19T08:22:33.253Z,2.50
2023-02-19T08:24:39.116Z,2.90
2023-02-19T08:26:43.596Z,2.60
2023-02-19T08:28:46.763Z,2.70
2023-02-19T08:30:50.583Z,2.50
2023-02-19T08:32:53.829Z,2.50
2023-02-19T08:34:57.024Z,2.53
2023-02-19T08:37:02.086Z,3.17
2023-02-19T08:39:05.197Z,2.73
2023-02-19T08:41:10.171Z,2.63
2023-02-19T08:43:17.330Z,2.60
2023-02-19T08:45:20.836Z,2.83
2023-02-19T08:47:24.015Z,2.30
2023-02-19T08:49:27.666Z,2.50
2023-02-19T08:51:30.829Z,2.80
2023-02-19T08:53:34.462Z,2.50
2023-02-19T08:55:39.654Z,2.30
2023-02-19T08:57:42.767Z,2.25
2023-02-19T08:59:47.182Z,2.00
2023-02-19T09:01:50.865Z,2.50
2023-02-19T09:03:54.359Z,2.30
2023-02-19T09:05:57.460Z,2.17
2023-02-19T09:08:00.929Z,2.40
2023-02-19T09:10:04.626Z,2.30
2023-02-19T09:12:09.010Z,2.10
2023-02-19T09:14:12.087Z,2.23
2023-02-19T09:16:16.610Z,2.20
2023-02-19T09:18:19.896Z,1.90
2023-02-19T09:20:23.090Z,1.90
2023-02-19T09:22:26.548Z,2.30
2023-02-19T09:24:29.654Z,2.33
2023-02-19T09:26:32.756Z,2.07
2023-02-19T09:28:37.778Z,1.80
2023-02-19T09:30:40.924Z,2.13
2023-02-19T09:32:45.580Z,1.80
2023-02-19T09:34:48.647Z,2.00
2023-02-19T09:36:52.114Z,2.77
2023-02-19T09:38:55.271Z,2.53
2023-02-19T09:40:59.006Z,2.10
2023-02-19T09:43:03.297Z,2.53
2023-02-19T09:45:07.411Z,2.70
2023-02-19T09:47:17.076Z,2.60
2023-02-19T09:49:25.940Z,2.37
2023-02-19T09:51:30.366Z,2.43
2023-02-19T09:53:40.270Z,2.30
2023-02-19T09:55:44.445Z,2.37
2023-02-19T09:57:48.363Z,2.37
2023-02-19T09:59:54.707Z,2.73
2023-02-19T10:02:03.071Z,2.40
2023-02-19T10:04:06.277Z,2.60
2023-02-19T10:06:16.748Z,2.50
2023-02-19T10:08:22.165Z,2.63
2023-02-19T10:10:30.142Z,2.40
2023-02-19T10:12:35.128Z,2.60
2023-02-19T10:14:41.517Z,2.53
2023-02-19T10:16:46.646Z,2.13
2023-02-19T10:18:49.862Z,2.70
2023-02-19T10:20:54.124Z,2.30
2023-02-19T10:23:03.524Z,2.23
2023-02-19T10:25:07.196Z,2.43
2023-02-19T10:27:13.432Z,2.10
2023-02-19T10:29:16.545Z,2.57
2023-02-19T10:31:22.186Z,2.27
2023-02-19T10:33:25.811Z,2.33
2023-02-19T10:35:29.678Z,2.30
2023-02-19T10:37:33.416Z,2.30
2023-02-19T10:39:43.991Z,2.73
2023-02-19T10:41:47.331Z,2.23
2023-02-19T10:43:54.939Z,2.60
2023-02-19T10:45:59.939Z,2.10
2023-02-19T10:48:04.317Z,2.87
2023-02-19T10:50:08.809Z,2.40
2023-02-19T10:52:17.914Z,2.27
2023-02-19T10:54:25.376Z,2.67
2023-02-19T10:56:31.512Z,2.10
2023-02-19T10:58:37.368Z,2.27
2023-02-19T11:00:40.637Z,2.53
2023-02-19T11:02:44.800Z,2.23
2023-02-19T11:05:05.465Z,2.27
2023-02-19T11:07:10.169Z,2.13
2023-02-19T11:09:26.912Z,2.40
2023-02-19T11:11:34.980Z,2.53
2023-02-19T11:13:39.779Z,2.03
2023-02-19T11:15:43.738Z,2.23
2023-02-19T11:17:47.060Z,2.47
2023-02-19T11:19:53.255Z,2.30
2023-02-19T11:21:57.014Z,2.43
2023-02-19T11:24:02.578Z,2.23
2023-02-19T11:26:07.841Z,1.90
2023-02-19T11:28:23.512Z,2.37
2023-02-19T11:30:36.546Z,2.47
2023-02-19T11:32:40.045Z,2.03
2023-02-19T11:34:43.161Z,1.97
2023-02-19T11:36:46.424Z,2.27
2023-02-19T11:38:49.713Z,2.40
2023-02-19T11:40:58.522Z,1.97
2023-02-19T11:43:07.775Z,1.73
2023-02-19T11:45:18.874Z,1.80
2023-02-19T11:47:44.896Z,1.73
2023-02-19T11:49:55.063Z,1.73
2023-02-19T11:52:08.281Z,2.37
2023-02-19T11:54:21.905Z,1.70
2023-02-19T11:56:33.726Z,1.87
2023-02-19T11:58:59.502Z,2.53
2023-02-19T12:01:11.722Z,2.47
2023-02-19T12:03:33.205Z,2.60
2023-02-19T12:05:45.199Z,2.03
2023-02-19T12:08:21.507Z,2.90
2023-02-19T12:10:29.122Z,2.57
2023-02-19T12:12:43.102Z,2.00
2023-02-19T12:15:11.931Z,2.40
2023-02-19T12:17:45.525Z,2.63
2023-02-19T12:20:04.711Z,2.73
2023-02-19T12:22:22.600Z,2.83
2023-02-19T12:24:45.919Z,3.20
2023-02-19T12:26:56.043Z,3.00
2023-02-19T12:29:18.069Z,3.87
2023-02-19T12:31:35.349Z,3.13
2023-02-19T12:34:03.846Z,3.20
2023-02-19T12:36:14.420Z,3.50
2023-02-19T12:38:23.688Z,4.87
2023-02-19T12:40:35.837Z,4.37
2023-02-19T12:42:47.092Z,3.80
2023-02-19T12:44:54.089Z,2.30
2023-02-19T12:46:59.587Z,3.43
2023-02-19T12:49:08.319Z,3.70
2023-02-19T12:51:15.802Z,2.73
2023-02-19T12:53:30.016Z,2.70
2023-02-19T12:55:36.411Z,5.70
2023-02-19T12:57:40.268Z,4.28
2023-02-19T12:59:46.424Z,3.90
2023-02-19T13:01:53.215Z,4.40
2023-02-19T13:04:14.064Z,4.10
2023-02-19T13:06:25.811Z,2.87
2023-02-19T13:08:34.209Z,3.87
2023-02-19T13:10:41.404Z,3.33
2023-02-19T13:12:45.696Z,4.10
2023-02-19T13:14:50.763Z,3.10
2023-02-19T13:16:59.560Z,2.87
2023-02-19T13:19:04.579Z,2.63
2023-02-19T13:21:09.969Z,3.10
2023-02-19T13:23:35.073Z,3.23
2023-02-19T13:25:57.780Z,2.60
2023-02-19T13:28:13.160Z,3.30
2023-02-19T13:30:29.982Z,3.23
2023-02-19T13:32:48.713Z,2.93
2023-02-19T13:35:11.715Z,2.50
2023-02-19T13:37:16.902Z,3.27
2023-02-19T13:39:21.650Z,2.60
2023-02-19T13:41:29.861Z,2.80
2023-02-19T13:43:35.641Z,3.00
2023-02-19T13:45:42.022Z,2.80
2023-02-19T13:47:51.447Z,2.87
2023-02-19T13:50:06.692Z,2.60
2023-02-19T13:52:39.819Z,3.13
2023-02-19T13:54:42.906Z,3.40
2023-02-19T13:56:45.998Z,4.20
2023-02-19T13:58:58.189Z,3.20
2023-02-19T14:01:02.461Z,3.10
2023-02-19T14:03:29.644Z,3.30
2023-02-19T14:06:00.611Z,3.10
2023-02-19T14:08:06.082Z,3.00
2023-02-19T14:10:13.477Z,3.37
2023-02-19T14:12:20.810Z,2.80
2023-02-19T14:14:28.584Z,2.80
2023-02-19T14:16:51.952Z,2.87
2023-02-19T14:18:56.389Z,2.57
2023-02-19T14:21:14.321Z,2.53
2023-02-19T14:23:24.369Z,2.33
2023-02-19T14:25:35.277Z,2.47
2023-02-19T14:27:39.037Z,2.60
2023-02-19T14:29:42.172Z,2.67
2023-02-19T14:31:46.705Z,3.20
2023-02-19T14:33:51.976Z,3.00
2023-02-19T14:35:58.550Z,2.73
2023-02-19T14:38:01.782Z,2.40
2023-02-19T14:40:07.047Z,2.67
2023-02-19T14:42:17.396Z,3.10
2023-02-19T14:44:24.977Z,3.57
2023-02-19T14:46:31.816Z,2.40
2023-02-19T14:48:39.458Z,3.03
2023-02-19T14:50:43.209Z,2.70
2023-02-19T14:52:49.466Z,2.77
2023-02-19T14:54:55.052Z,2.80
2023-02-19T14:57:00.636Z,3.10
2023-02-19T14:59:23.072Z,2.70
2023-02-19T15:01:27.263Z,2.90
2023-02-19T15:03:34.085Z,3.10
2023-02-19T15:05:38.270Z,2.70
2023-02-19T15:07:42.750Z,2.70
2023-02-19T15:09:47.839Z,2.80
2023-02-19T15:11:51.168Z,2.40
2023-02-19T15:13:58.567Z,3.00
2023-02-19T15:16:01.772Z,2.93
2023-02-19T15:18:06.102Z,2.23
2023-02-19T15:20:12.760Z,3.10
2023-02-19T15:22:21.124Z,2.97
2023-02-19T15:24:24.310Z,2.90
2023-02-19T15:26:33.326Z,2.60
2023-02-19T15:28:36.415Z,2.80
2023-02-19T15:30:40.969Z,2.50
2023-02-19T15:32:53.095Z,3.10
2023-02-19T15:34:57.325Z,2.90
2023-02-19T15:37:02.823Z,2.40
2023-02-19T15:39:06.064Z,2.70
2023-02-19T15:41:18.039Z,2.80
2023-02-19T15:43:24.722Z,2.87
2023-02-19T15:45:30.003Z,2.93
2023-02-19T15:47:36.908Z,2.87
2023-02-19T15:49:46.123Z,3.90
2023-02-19T15:51:53.381Z,4.40
2023-02-19T15:53:59.774Z,3.63
2023-02-19T15:56:05.800Z,4.00
2023-02-19T15:58:13.317Z,5.17
2023-02-19T16:00:22.681Z,4.57
2023-02-19T16:02:27.683Z,2.90
2023-02-19T16:04:32.388Z,3.83
2023-02-19T16:06:55.723Z,3.40
2023-02-19T16:09:03.094Z,3.60
2023-02-19T16:11:08.875Z,3.97
2023-02-19T16:13:13.146Z,3.70
2023-02-19T16:15:20.176Z,3.63
2023-02-19T16:17:28.181Z,3.47
2023-02-19T16:19:44.034Z,4.00
2023-02-19T16:21:47.235Z,3.83
2023-02-19T16:23:54.609Z,3.97
2023-02-19T16:26:01.875Z,3.30
2023-02-19T16:28:12.519Z,3.97
2023-02-19T16:30:28.068Z,3.60
2023-02-19T16:32:31.313Z,3.30
2023-02-19T16:34:41.908Z,3.43
2023-02-19T16:36:46.257Z,3.70
2023-02-19T16:39:06.143Z,3.80
2023-02-19T16:41:13.913Z,3.77
2023-02-19T16:43:30.427Z,4.60
2023-02-19T16:45:33.608Z,3.90
2023-02-19T16:47:41.652Z,3.70
2023-02-19T16:49:46.257Z,4.30
2023-02-19T16:51:49.534Z,4.10
2023-02-19T16:53:52.692Z,3.40
2023-02-19T16:55:56.007Z,3.60
2023-02-19T16:57:59.284Z,4.10
2023-02-19T17:00:02.446Z,3.47
2023-02-19T17:02:16.899Z,5.03
2023-02-19T17:04:20.040Z,5.13
2023-02-19T17:06:24.603Z,3.63
2023-02-19T17:08:33.890Z,4.17
2023-02-19T17:10:37.021Z,4.47
2023-02-19T17:12:41.574Z,4.10
2023-02-19T17:14:45.837Z,3.60
2023-02-19T17:16:49.186Z,4.37
2023-02-19T17:18:52.581Z,5.30
2023-02-19T17:20:58.567Z,4.40
2023-02-19T17:23:03.074Z,3.73
2023-02-19T17:25:07.060Z,3.37
2023-02-19T17:27:11.959Z,4.60
2023-02-19T17:29:18.426Z,4.43
2023-02-19T17:31:21.852Z,4.83
2023-02-19T17:33:25.014Z,4.50
2023-02-19T17:35:28.146Z,3.50
2023-02-19T17:37:31.461Z,3.50
2023-02-19T17:39:35.890Z,4.40
2023-02-19T17:41:39.014Z,3.40
2023-02-19T17:43:42.323Z,4.03
2023-02-19T17:45:45.484Z,3.70
2023-02-19T17:47:49.027Z,3.67
2023-02-19T17:49:52.268Z,4.13
2023-02-19T17:51:55.443Z,3.90
2023-02-19T17:53:58.584Z,4.77
2023-02-19T17:56:06.497Z,4.10
2023-02-19T17:58:09.617Z,3.80
2023-02-19T18:00:17.118Z,4.30
2023-02-19T18:02:20.149Z,4.17
2023-02-19T18:04:23.322Z,5.70
2023-02-19T18:06:26.664Z,5.20
2023-02-19T18:08:29.864Z,4.47
2023-02-19T18:10:32.925Z,4.23
2023-02-19T18:12:37.354Z,4.77
2023-02-19T18:14:40.443Z,4.60
2023-02-19T18:16:49.693Z,5.40
2023-02-19T18:18:53.360Z,4.67
2023-02-19T18:20:56.524Z,4.67
2023-02-19T18:23:02.350Z,3.83
2023-02-19T18:25:05.639Z,4.20
2023-02-19T18:27:08.693Z,3.83
2023-02-19T18:29:13.196Z,3.90
2023-02-19T18:31:16.690Z,3.93
2023-02-19T18:33:19.987Z,3.60
2023-02-19T18:35:23.284Z,4.20
2023-02-19T18:37:27.616Z,3.80
2023-02-19T18:39:30.728Z,3.93
2023-02-19T18:41:33.839Z,3.87
2023-02-19T18:43:36.924Z,3.80
2023-02-19T18:45:43.368Z,5.07
2023-02-19T18:47:47.654Z,3.50
2023-02-19T18:49:51.783Z,3.40
2023-02-19T18:51:55.268Z,3.20
2023-02-19T18:54:01.755Z,4.40
2023-02-19T18:56:05.425Z,3.70
2023-02-19T18:58:11.113Z,3.27
2023-02-19T19:00:18.389Z,4.47
2023-02-19T19:02:23.272Z,3.77
2023-02-19T19:04:26.522Z,3.90
2023-02-19T19:06:29.888Z,4.33
2023-02-19T19:08:32.925Z,4.13
2023-02-19T19:10:36.070Z,4.10
2023-02-19T19:12:39.113Z,4.10
2023-02-19T19:14:43.293Z,4.30
2023-02-19T19:16:46.397Z,4.60
2023-02-19T19:18:51.471Z,6.10
2023-02-19T19:20:56.680Z,4.80
2023-02-19T19:22:59.814Z,5.30
2023-02-19T19:25:02.914Z,4.60
2023-02-19T19:27:06.016Z,4.37
2023-02-19T19:29:09.435Z,5.07
2023-02-19T19:31:13.021Z,4.60
2023-02-19T19:33:17.732Z,4.13
2023-02-19T19:35:22.793Z,4.80
2023-02-19T19:37:28.416Z,4.40
2023-02-19T19:39:31.664Z,4.80
2023-02-19T19:41:34.833Z,4.37
2023-02-19T19:43:38.069Z,4.83
2023-02-19T19:45:41.403Z,5.27
2023-02-19T19:47:44.691Z,5.30
2023-02-19T19:49:48.232Z,4.67
2023-02-19T19:51:52.752Z,4.93
2023-02-19T19:53:55.883Z,4.60
2023-02-19T19:55:58.992Z,4.70
2023-02-19T19:58:02.069Z,4.33
2023-02-19T20:00:06.045Z,4.77
2023-02-19T20:02:15.498Z,4.53
2023-02-19T20:04:18.746Z,4.30
2023-02-19T20:06:26.777Z,4.10
2023-02-19T20:08:31.267Z,3.90
2023-02-19T20:10:34.451Z,3.70
2023-02-19T20:12:37.580Z,4.00
2023-02-19T20:14:40.694Z,4.40
2023-02-19T20:16:44.826Z,5.00
2023-02-19T20:18:48.031Z,4.50
2023-02-19T20:20:51.117Z,4.93
2023-02-19T20:22:54.750Z,4.00
2023-02-19T20:24:59.333Z,3.80
2023-02-19T20:27:03.001Z,4.30
2023-02-19T20:29:07.137Z,3.60
2023-02-19T20:31:10.684Z,3.33
2023-02-19T20:33:13.966Z,3.87
2023-02-19T20:35:17.677Z,5.00
2023-02-19T20:37:23.723Z,10.80
2023-02-19T20:39:29.198Z,4.93
2023-02-19T20:41:33.645Z,5.67
2023-02-19T20:43:36.668Z,5.47
2023-02-19T20:45:41.060Z,4.80
2023-02-19T20:47:44.180Z,4.70
2023-02-19T20:49:47.288Z,4.60
2023-02-19T20:51:51.960Z,5.50
2023-02-19T20:53:55.065Z,5.57
2023-02-19T20:55:58.277Z,5.00
2023-02-19T20:58:02.745Z,6.03
2023-02-19T21:00:07.313Z,5.67
2023-02-19T21:02:15.704Z,5.50
2023-02-19T21:04:19.325Z,5.80
2023-02-19T21:06:22.598Z,6.60
2023-02-19T21:08:25.692Z,5.30
2023-02-19T21:10:28.722Z,5.35
2023-02-19T21:12:32.715Z,5.50
2023-02-19T21:14:37.097Z,5.30
2023-02-19T21:16:40.236Z,5.20
2023-02-19T21:18:43.675Z,5.13
2023-02-19T21:20:46.631Z,5.40
2023-02-19T21:22:49.673Z,5.23
2023-02-19T21:24:53.560Z,6.00
2023-02-19T21:26:56.410Z,5.80
2023-02-19T21:28:59.341Z,5.60
2023-02-19T21:31:03.653Z,5.70
2023-02-19T21:33:06.659Z,5.90
2023-02-19T21:35:10.394Z,5.87
2023-02-19T21:37:13.474Z,5.20
2023-02-19T21:39:19.136Z,5.90
2023-02-19T21:41:22.404Z,5.60
2023-02-19T21:43:25.478Z,5.50
2023-02-19T21:45:28.658Z,5.90
2023-02-19T21:47:33.180Z,4.90
2023-02-19T21:49:36.254Z,7.60
2023-02-19T21:51:40.636Z,5.40
2023-02-19T21:53:44.020Z,4.37
2023-02-19T21:55:57.986Z,5.10
2023-02-19T21:58:01.829Z,4.63
2023-02-19T22:00:06.494Z,4.70
2023-02-19T22:02:10.416Z,4.80
2023-02-19T22:04:17.721Z,4.97
2023-02-19T22:06:22.537Z,5.13
2023-02-19T22:08:25.603Z,5.10
2023-02-19T22:10:28.652Z,4.97
2023-02-19T22:12:31.760Z,4.57
2023-02-19T22:14:34.869Z,3.90
2023-02-19T22:16:38.092Z,5.30
2023-02-19T22:18:47.303Z,4.70
2023-02-19T22:20:51.683Z,4.13
2023-02-19T22:22:54.903Z,4.47
2023-02-19T22:24:58.209Z,4.33
2023-02-19T22:27:01.290Z,4.50
2023-02-19T22:29:07.260Z,5.60
2023-02-19T22:31:10.573Z,4.60
2023-02-19T22:33:13.646Z,4.50
2023-02-19T22:35:16.920Z,4.83
2023-02-19T22:37:21.321Z,4.40
2023-02-19T22:39:25.937Z,4.10
2023-02-19T22:41:29.245Z,4.60
2023-02-19T22:43:32.336Z,4.30
2023-02-19T22:45:35.459Z,3.83
2023-02-19T22:47:39.977Z,4.00
2023-02-19T22:49:43.942Z,4.80
2023-02-19T22:51:51.791Z,4.43
2023-02-19T22:53:57.816Z,4.60
2023-02-19T22:56:00.903Z,4.33
2023-02-19T22:58:03.959Z,4.20
2023-02-19T23:00:08.700Z,4.20
2023-02-19T23:02:11.802Z,4.53
2023-02-19T23:04:14.994Z,4.33
2023-02-19T23:06:22.218Z,4.60
2023-02-19T23:08:25.322Z,4.63
2023-02-19T23:10:29.745Z,3.80
2023-02-19T23:12:32.868Z,4.87
2023-02-19T23:14:36.410Z,6.00
2023-02-19T23:16:39.466Z,4.43
2023-02-19T23:18:42.531Z,4.07
2023-02-19T23:20:45.741Z,4.40
2023-02-19T23:22:48.805Z,4.47
2023-02-19T23:24:51.948Z,4.23
2023-02-19T23:26:56.468Z,4.23
2023-02-19T23:28:59.637Z,5.10
2023-02-19T23:31:02.825Z,4.27
2023-02-19T23:33:05.863Z,4.50
2023-02-19T23:35:09.242Z,4.30
2023-02-19T23:37:12.272Z,4.47
2023-02-19T23:39:18.176Z,4.40
2023-02-19T23:41:21.295Z,4.33
2023-02-19T23:43:25.828Z,4.57
2023-02-19T23:45:29.627Z,4.70
2023-02-19T23:47:32.671Z,4.07
2023-02-19T23:49:35.775Z,4.70
2023-02-19T23:51:38.849Z,5.23
2023-02-19T23:53:42.068Z,4.20
2023-02-19T23:55:45.177Z,4.20
2023-02-19T23:57:48.224Z,4.67
2023-02-19T23:59:52.953Z,4.60
